sensor_id;sensor_type;location;lat;lon;timestamp;P1;durP1;ratioP1;P2;durP2;ratioP2
66175;SDS011;52977;44.816;20.538;2024-03-08T00:00:20;15.38;;;7.38;;
66175;SDS011;52977;44.816;20.538;2024-03-08T00:02:47;14.23;;;8.05;;
66175;SDS011;52977;44.816;20.538;2024-03-08T00:05:14;16.40;;;8.27;;
66175;SDS011;52977;44.816;20.538;2024-03-08T00:07:41;14.77;;;7.72;;
66175;SDS011;52977;44.816;20.538;2024-03-08T00:10:09;15.55;;;8.43;;
66175;SDS011;52977;44.816;20.538;2024-03-08T00:12:40;14.50;;;7.65;;
66175;SDS011;52977;44.816;20.538;2024-03-08T00:15:11;15.70;;;7.97;;
66175;SDS011;52977;44.816;20.538;2024-03-08T00:17:40;15.55;;;7.93;;
66175;SDS011;52977;44.816;20.538;2024-03-08T00:20:07;15.18;;;7.60;;
66175;SDS011;52977;44.816;20.538;2024-03-08T00:22:53;13.77;;;7.90;;
66175;SDS011;52977;44.816;20.538;2024-03-08T00:25:19;14.90;;;7.05;;
66175;SDS011;52977;44.816;20.538;2024-03-08T00:27:46;14.95;;;7.30;;
66175;SDS011;52977;44.816;20.538;2024-03-08T00:30:15;14.65;;;7.10;;
66175;SDS011;52977;44.816;20.538;2024-03-08T00:32:46;14.95;;;8.25;;
66175;SDS011;52977;44.816;20.538;2024-03-08T00:35:11;13.98;;;7.10;;
66175;SDS011;52977;44.816;20.538;2024-03-08T00:37:44;11.45;;;6.78;;
66175;SDS011;52977;44.816;20.538;2024-03-08T00:40:13;13.80;;;6.95;;
66175;SDS011;52977;44.816;20.538;2024-03-08T00:42:39;12.45;;;6.05;;
66175;SDS011;52977;44.816;20.538;2024-03-08T00:45:06;13.25;;;7.03;;
66175;SDS011;52977;44.816;20.538;2024-03-08T00:47:33;12.52;;;6.60;;
66175;SDS011;52977;44.816;20.538;2024-03-08T00:49:59;11.18;;;6.43;;
66175;SDS011;52977;44.816;20.538;2024-03-08T00:52:30;14.65;;;7.32;;
66175;SDS011;52977;44.816;20.538;2024-03-08T00:54:56;12.25;;;6.47;;
66175;SDS011;52977;44.816;20.538;2024-03-08T00:57:22;10.73;;;6.43;;
66175;SDS011;52977;44.816;20.538;2024-03-08T00:59:49;11.30;;;6.40;;
66175;SDS011;52977;44.816;20.538;2024-03-08T01:02:15;11.50;;;6.20;;
66175;SDS011;52977;44.816;20.538;2024-03-08T01:04:44;12.65;;;6.68;;
66175;SDS011;52977;44.816;20.538;2024-03-08T01:07:13;13.25;;;6.93;;
66175;SDS011;52977;44.816;20.538;2024-03-08T01:09:39;10.98;;;6.30;;
66175;SDS011;52977;44.816;20.538;2024-03-08T01:12:06;12.77;;;6.88;;
66175;SDS011;52977;44.816;20.538;2024-03-08T01:14:33;12.80;;;6.65;;
66175;SDS011;52977;44.816;20.538;2024-03-08T01:16:59;15.27;;;6.25;;
66175;SDS011;52977;44.816;20.538;2024-03-08T01:19:26;14.65;;;5.47;;
66175;SDS011;52977;44.816;20.538;2024-03-08T01:21:52;11.32;;;6.45;;
66175;SDS011;52977;44.816;20.538;2024-03-08T01:24:21;12.65;;;6.38;;
66175;SDS011;52977;44.816;20.538;2024-03-08T01:26:48;12.15;;;6.68;;
66175;SDS011;52977;44.816;20.538;2024-03-08T01:29:14;15.85;;;6.95;;
66175;SDS011;52977;44.816;20.538;2024-03-08T01:31:41;12.25;;;6.40;;
66175;SDS011;52977;44.816;20.538;2024-03-08T01:34:07;12.27;;;6.68;;
66175;SDS011;52977;44.816;20.538;2024-03-08T01:36:33;12.25;;;6.65;;
66175;SDS011;52977;44.816;20.538;2024-03-08T01:38:59;12.70;;;6.65;;
66175;SDS011;52977;44.816;20.538;2024-03-08T01:41:25;14.85;;;6.75;;
66175;SDS011;52977;44.816;20.538;2024-03-08T01:43:53;10.43;;;6.28;;
66175;SDS011;52977;44.816;20.538;2024-03-08T01:46:20;10.80;;;6.50;;
66175;SDS011;52977;44.816;20.538;2024-03-08T01:48:50;13.30;;;6.03;;
66175;SDS011;52977;44.816;20.538;2024-03-08T01:51:17;11.32;;;6.28;;
66175;SDS011;52977;44.816;20.538;2024-03-08T01:53:44;11.30;;;6.97;;
66175;SDS011;52977;44.816;20.538;2024-03-08T01:56:12;11.65;;;6.50;;
66175;SDS011;52977;44.816;20.538;2024-03-08T01:58:42;13.02;;;6.60;;
66175;SDS011;52977;44.816;20.538;2024-03-08T02:01:10;13.63;;;6.95;;
66175;SDS011;52977;44.816;20.538;2024-03-08T02:03:38;13.82;;;7.03;;
66175;SDS011;52977;44.816;20.538;2024-03-08T02:06:04;11.55;;;6.63;;
66175;SDS011;52977;44.816;20.538;2024-03-08T02:08:34;12.77;;;6.20;;
66175;SDS011;52977;44.816;20.538;2024-03-08T02:11:00;11.30;;;6.22;;
66175;SDS011;52977;44.816;20.538;2024-03-08T02:13:28;13.30;;;6.82;;
66175;SDS011;52977;44.816;20.538;2024-03-08T02:18:28;11.45;;;6.55;;
66175;SDS011;52977;44.816;20.538;2024-03-08T02:20:55;12.18;;;6.13;;
66175;SDS011;52977;44.816;20.538;2024-03-08T02:23:23;17.38;;;7.93;;
66175;SDS011;52977;44.816;20.538;2024-03-08T02:25:53;12.15;;;6.57;;
66175;SDS011;52977;44.816;20.538;2024-03-08T02:28:22;12.85;;;6.55;;
66175;SDS011;52977;44.816;20.538;2024-03-08T02:30:51;14.82;;;6.82;;
66175;SDS011;52977;44.816;20.538;2024-03-08T02:33:22;12.25;;;6.50;;
66175;SDS011;52977;44.816;20.538;2024-03-08T02:35:49;12.05;;;6.00;;
66175;SDS011;52977;44.816;20.538;2024-03-08T02:38:17;12.40;;;5.80;;
66175;SDS011;52977;44.816;20.538;2024-03-08T02:40:45;12.23;;;6.03;;
66175;SDS011;52977;44.816;20.538;2024-03-08T02:43:13;12.00;;;5.97;;
66175;SDS011;52977;44.816;20.538;2024-03-08T02:45:40;13.43;;;6.60;;
66175;SDS011;52977;44.816;20.538;2024-03-08T02:48:08;12.32;;;6.38;;
66175;SDS011;52977;44.816;20.538;2024-03-08T02:50:34;11.02;;;5.93;;
66175;SDS011;52977;44.816;20.538;2024-03-08T02:53:02;10.85;;;6.07;;
66175;SDS011;52977;44.816;20.538;2024-03-08T02:55:30;13.00;;;6.40;;
66175;SDS011;52977;44.816;20.538;2024-03-08T02:57:56;13.02;;;7.10;;
66175;SDS011;52977;44.816;20.538;2024-03-08T03:00:23;9.73;;;5.43;;
66175;SDS011;52977;44.816;20.538;2024-03-08T03:02:50;12.43;;;6.13;;
66175;SDS011;52977;44.816;20.538;2024-03-08T03:05:20;12.77;;;5.97;;
66175;SDS011;52977;44.816;20.538;2024-03-08T03:07:46;11.05;;;5.75;;
66175;SDS011;52977;44.816;20.538;2024-03-08T03:10:14;11.20;;;6.20;;
66175;SDS011;52977;44.816;20.538;2024-03-08T03:12:43;12.45;;;6.28;;
66175;SDS011;52977;44.816;20.538;2024-03-08T03:15:12;11.23;;;6.10;;
66175;SDS011;52977;44.816;20.538;2024-03-08T03:17:38;9.80;;;5.57;;
66175;SDS011;52977;44.816;20.538;2024-03-08T03:20:06;11.68;;;6.00;;
66175;SDS011;52977;44.816;20.538;2024-03-08T03:22:39;13.43;;;6.18;;
66175;SDS011;52977;44.816;20.538;2024-03-08T03:25:07;11.88;;;6.40;;
66175;SDS011;52977;44.816;20.538;2024-03-08T03:27:54;11.55;;;6.00;;
66175;SDS011;52977;44.816;20.538;2024-03-08T03:30:23;13.25;;;6.68;;
66175;SDS011;52977;44.816;20.538;2024-03-08T03:32:52;12.13;;;6.00;;
66175;SDS011;52977;44.816;20.538;2024-03-08T03:35:20;10.68;;;6.07;;
66175;SDS011;52977;44.816;20.538;2024-03-08T03:37:47;13.52;;;7.13;;
66175;SDS011;52977;44.816;20.538;2024-03-08T03:40:30;13.20;;;6.53;;
66175;SDS011;52977;44.816;20.538;2024-03-08T03:42:57;11.30;;;6.38;;
66175;SDS011;52977;44.816;20.538;2024-03-08T03:45:24;13.48;;;6.60;;
66175;SDS011;52977;44.816;20.538;2024-03-08T03:47:51;11.93;;;6.00;;
66175;SDS011;52977;44.816;20.538;2024-03-08T03:50:36;12.02;;;6.28;;
66175;SDS011;52977;44.816;20.538;2024-03-08T03:53:04;12.45;;;6.63;;
66175;SDS011;52977;44.816;20.538;2024-03-08T03:55:34;13.30;;;6.10;;
66175;SDS011;52977;44.816;20.538;2024-03-08T03:58:02;12.02;;;6.18;;
66175;SDS011;52977;44.816;20.538;2024-03-08T04:00:29;12.75;;;6.35;;
66175;SDS011;52977;44.816;20.538;2024-03-08T04:02:55;11.27;;;6.30;;
66175;SDS011;52977;44.816;20.538;2024-03-08T04:05:25;12.95;;;6.45;;
66175;SDS011;52977;44.816;20.538;2024-03-08T04:07:52;12.32;;;5.95;;
66175;SDS011;52977;44.816;20.538;2024-03-08T04:10:18;15.75;;;7.13;;
66175;SDS011;52977;44.816;20.538;2024-03-08T04:12:45;13.65;;;6.93;;
66175;SDS011;52977;44.816;20.538;2024-03-08T04:15:12;12.90;;;6.22;;
66175;SDS011;52977;44.816;20.538;2024-03-08T04:17:38;11.57;;;5.82;;
66175;SDS011;52977;44.816;20.538;2024-03-08T04:20:04;11.50;;;5.88;;
66175;SDS011;52977;44.816;20.538;2024-03-08T04:22:36;11.65;;;5.90;;
66175;SDS011;52977;44.816;20.538;2024-03-08T04:25:03;12.70;;;6.10;;
66175;SDS011;52977;44.816;20.538;2024-03-08T04:27:32;12.25;;;6.22;;
66175;SDS011;52977;44.816;20.538;2024-03-08T04:29:59;10.07;;;5.05;;
66175;SDS011;52977;44.816;20.538;2024-03-08T04:32:25;10.20;;;5.50;;
66175;SDS011;52977;44.816;20.538;2024-03-08T04:34:54;10.27;;;4.90;;
66175;SDS011;52977;44.816;20.538;2024-03-08T04:37:20;9.65;;;4.90;;
66175;SDS011;52977;44.816;20.538;2024-03-08T04:39:50;10.38;;;5.40;;
66175;SDS011;52977;44.816;20.538;2024-03-08T04:42:17;9.95;;;5.38;;
66175;SDS011;52977;44.816;20.538;2024-03-08T04:44:44;11.07;;;5.75;;
66175;SDS011;52977;44.816;20.538;2024-03-08T04:47:10;10.48;;;5.57;;
66175;SDS011;52977;44.816;20.538;2024-03-08T04:49:37;11.57;;;5.75;;
66175;SDS011;52977;44.816;20.538;2024-03-08T04:52:04;11.93;;;6.20;;
66175;SDS011;52977;44.816;20.538;2024-03-08T04:54:31;11.07;;;5.50;;
66175;SDS011;52977;44.816;20.538;2024-03-08T04:56:57;12.80;;;5.82;;
66175;SDS011;52977;44.816;20.538;2024-03-08T04:59:28;11.35;;;5.80;;
66175;SDS011;52977;44.816;20.538;2024-03-08T05:01:53;10.98;;;5.65;;
66175;SDS011;52977;44.816;20.538;2024-03-08T05:04:20;12.85;;;5.88;;
66175;SDS011;52977;44.816;20.538;2024-03-08T05:06:46;10.50;;;5.68;;
66175;SDS011;52977;44.816;20.538;2024-03-08T05:09:12;12.20;;;5.63;;
66175;SDS011;52977;44.816;20.538;2024-03-08T05:12:01;12.70;;;6.68;;
66175;SDS011;52977;44.816;20.538;2024-03-08T05:14:27;12.30;;;6.45;;
66175;SDS011;52977;44.816;20.538;2024-03-08T05:16:54;13.23;;;6.82;;
66175;SDS011;52977;44.816;20.538;2024-03-08T05:19:21;15.23;;;6.95;;
66175;SDS011;52977;44.816;20.538;2024-03-08T05:21:48;12.55;;;6.43;;
66175;SDS011;52977;44.816;20.538;2024-03-08T05:24:16;11.48;;;5.97;;
66175;SDS011;52977;44.816;20.538;2024-03-08T05:26:43;10.18;;;5.68;;
66175;SDS011;52977;44.816;20.538;2024-03-08T05:29:10;10.48;;;5.57;;
66175;SDS011;52977;44.816;20.538;2024-03-08T05:34:18;11.43;;;5.53;;
66175;SDS011;52977;44.816;20.538;2024-03-08T05:36:48;11.98;;;5.70;;
66175;SDS011;52977;44.816;20.538;2024-03-08T05:39:18;10.30;;;5.65;;
66175;SDS011;52977;44.816;20.538;2024-03-08T05:42:04;10.93;;;5.45;;
66175;SDS011;52977;44.816;20.538;2024-03-08T05:44:30;11.27;;;5.40;;
66175;SDS011;52977;44.816;20.538;2024-03-08T05:46:57;12.43;;;5.78;;
66175;SDS011;52977;44.816;20.538;2024-03-08T05:49:23;10.98;;;5.50;;
66175;SDS011;52977;44.816;20.538;2024-03-08T05:51:51;10.27;;;5.38;;
66175;SDS011;52977;44.816;20.538;2024-03-08T05:54:16;10.75;;;5.63;;
66175;SDS011;52977;44.816;20.538;2024-03-08T05:56:43;12.57;;;6.35;;
66175;SDS011;52977;44.816;20.538;2024-03-08T05:59:10;12.18;;;6.40;;
66175;SDS011;52977;44.816;20.538;2024-03-08T06:01:37;10.82;;;5.63;;
66175;SDS011;52977;44.816;20.538;2024-03-08T06:04:06;11.38;;;5.50;;
66175;SDS011;52977;44.816;20.538;2024-03-08T06:06:32;12.38;;;6.13;;
66175;SDS011;52977;44.816;20.538;2024-03-08T06:08:59;12.82;;;5.72;;
66175;SDS011;52977;44.816;20.538;2024-03-08T06:11:25;10.98;;;5.53;;
66175;SDS011;52977;44.816;20.538;2024-03-08T06:13:57;12.63;;;5.85;;
66175;SDS011;52977;44.816;20.538;2024-03-08T06:16:26;14.13;;;5.82;;
66175;SDS011;52977;44.816;20.538;2024-03-08T06:18:58;12.95;;;6.05;;
66175;SDS011;52977;44.816;20.538;2024-03-08T06:21:24;14.73;;;6.45;;
66175;SDS011;52977;44.816;20.538;2024-03-08T06:23:53;12.90;;;6.68;;
66175;SDS011;52977;44.816;20.538;2024-03-08T06:26:26;12.85;;;6.00;;
66175;SDS011;52977;44.816;20.538;2024-03-08T06:29:12;15.40;;;6.32;;
66175;SDS011;52977;44.816;20.538;2024-03-08T06:31:38;15.10;;;6.55;;
66175;SDS011;52977;44.816;20.538;2024-03-08T06:34:05;11.30;;;5.50;;
66175;SDS011;52977;44.816;20.538;2024-03-08T06:36:33;12.48;;;5.85;;
66175;SDS011;52977;44.816;20.538;2024-03-08T06:39:00;15.15;;;6.65;;
66175;SDS011;52977;44.816;20.538;2024-03-08T06:41:27;14.10;;;6.45;;
66175;SDS011;52977;44.816;20.538;2024-03-08T06:43:54;15.55;;;6.57;;
66175;SDS011;52977;44.816;20.538;2024-03-08T06:46:23;16.45;;;6.93;;
66175;SDS011;52977;44.816;20.538;2024-03-08T06:48:50;17.98;;;8.10;;
66175;SDS011;52977;44.816;20.538;2024-03-08T06:51:16;18.70;;;7.43;;
66175;SDS011;52977;44.816;20.538;2024-03-08T06:53:42;17.80;;;7.82;;
66175;SDS011;52977;44.816;20.538;2024-03-08T06:56:09;19.67;;;8.30;;
66175;SDS011;52977;44.816;20.538;2024-03-08T06:58:35;22.27;;;9.20;;
66175;SDS011;52977;44.816;20.538;2024-03-08T07:01:02;23.60;;;10.45;;
66175;SDS011;52977;44.816;20.538;2024-03-08T07:03:30;24.63;;;10.90;;
66175;SDS011;52977;44.816;20.538;2024-03-08T07:05:56;23.35;;;10.52;;
66175;SDS011;52977;44.816;20.538;2024-03-08T07:08:24;27.73;;;12.18;;
66175;SDS011;52977;44.816;20.538;2024-03-08T07:10:53;24.73;;;10.73;;
66175;SDS011;52977;44.816;20.538;2024-03-08T07:13:20;22.45;;;10.25;;
66175;SDS011;52977;44.816;20.538;2024-03-08T07:15:46;25.73;;;10.88;;
66175;SDS011;52977;44.816;20.538;2024-03-08T07:18:13;23.50;;;10.65;;
66175;SDS011;52977;44.816;20.538;2024-03-08T07:20:41;23.85;;;11.00;;
66175;SDS011;52977;44.816;20.538;2024-03-08T07:23:08;27.40;;;11.27;;
66175;SDS011;52977;44.816;20.538;2024-03-08T07:25:36;25.40;;;10.93;;
66175;SDS011;52977;44.816;20.538;2024-03-08T07:28:05;26.25;;;11.52;;
66175;SDS011;52977;44.816;20.538;2024-03-08T07:30:32;25.70;;;10.95;;
66175;SDS011;52977;44.816;20.538;2024-03-08T07:33:10;23.08;;;9.77;;
66175;SDS011;52977;44.816;20.538;2024-03-08T07:35:38;24.70;;;10.82;;
66175;SDS011;52977;44.816;20.538;2024-03-08T07:38:05;23.20;;;10.93;;
66175;SDS011;52977;44.816;20.538;2024-03-08T07:40:35;24.52;;;10.68;;
66175;SDS011;52977;44.816;20.538;2024-03-08T07:43:03;30.02;;;10.70;;
66175;SDS011;52977;44.816;20.538;2024-03-08T07:45:30;29.30;;;11.70;;
66175;SDS011;52977;44.816;20.538;2024-03-08T07:47:56;25.70;;;10.60;;
66175;SDS011;52977;44.816;20.538;2024-03-08T07:50:23;23.98;;;10.25;;
66175;SDS011;52977;44.816;20.538;2024-03-08T07:52:49;22.98;;;10.20;;
66175;SDS011;52977;44.816;20.538;2024-03-08T07:55:16;25.67;;;11.25;;
66175;SDS011;52977;44.816;20.538;2024-03-08T07:57:42;29.98;;;10.95;;
66175;SDS011;52977;44.816;20.538;2024-03-08T08:00:09;27.73;;;10.90;;
66175;SDS011;52977;44.816;20.538;2024-03-08T08:02:36;24.85;;;9.82;;
66175;SDS011;52977;44.816;20.538;2024-03-08T08:05:02;25.70;;;10.80;;
66175;SDS011;52977;44.816;20.538;2024-03-08T08:07:29;21.63;;;10.43;;
66175;SDS011;52977;44.816;20.538;2024-03-08T08:09:55;19.83;;;9.27;;
66175;SDS011;52977;44.816;20.538;2024-03-08T08:12:22;25.73;;;10.50;;
66175;SDS011;52977;44.816;20.538;2024-03-08T08:14:48;26.90;;;9.65;;
66175;SDS011;52977;44.816;20.538;2024-03-08T08:17:16;28.15;;;10.50;;
66175;SDS011;52977;44.816;20.538;2024-03-08T08:19:43;28.40;;;10.70;;
66175;SDS011;52977;44.816;20.538;2024-03-08T08:22:15;22.00;;;9.07;;
66175;SDS011;52977;44.816;20.538;2024-03-08T08:24:42;31.60;;;10.90;;
66175;SDS011;52977;44.816;20.538;2024-03-08T08:27:14;31.80;;;11.20;;
66175;SDS011;52977;44.816;20.538;2024-03-08T08:29:41;25.52;;;9.80;;
66175;SDS011;52977;44.816;20.538;2024-03-08T08:32:09;23.38;;;10.15;;
66175;SDS011;52977;44.816;20.538;2024-03-08T08:34:36;30.92;;;11.75;;
66175;SDS011;52977;44.816;20.538;2024-03-08T08:37:03;35.67;;;11.35;;
66175;SDS011;52977;44.816;20.538;2024-03-08T08:39:29;27.50;;;10.07;;
66175;SDS011;52977;44.816;20.538;2024-03-08T08:41:56;25.33;;;10.70;;
66175;SDS011;52977;44.816;20.538;2024-03-08T08:44:23;30.67;;;11.38;;
66175;SDS011;52977;44.816;20.538;2024-03-08T08:46:51;28.80;;;9.98;;
66175;SDS011;52977;44.816;20.538;2024-03-08T08:49:17;31.23;;;11.60;;
66175;SDS011;52977;44.816;20.538;2024-03-08T08:51:49;34.40;;;11.88;;
66175;SDS011;52977;44.816;20.538;2024-03-08T08:54:16;33.67;;;11.88;;
66175;SDS011;52977;44.816;20.538;2024-03-08T08:56:43;30.50;;;11.85;;
66175;SDS011;52977;44.816;20.538;2024-03-08T08:59:10;36.90;;;14.07;;
66175;SDS011;52977;44.816;20.538;2024-03-08T09:01:56;34.08;;;12.30;;
66175;SDS011;52977;44.816;20.538;2024-03-08T09:04:23;33.20;;;13.13;;
66175;SDS011;52977;44.816;20.538;2024-03-08T09:06:49;36.47;;;13.50;;
66175;SDS011;52977;44.816;20.538;2024-03-08T09:09:16;28.23;;;11.18;;
66175;SDS011;52977;44.816;20.538;2024-03-08T09:11:43;29.70;;;11.68;;
66175;SDS011;52977;44.816;20.538;2024-03-08T09:14:09;27.00;;;11.60;;
66175;SDS011;52977;44.816;20.538;2024-03-08T09:16:37;26.90;;;11.52;;
66175;SDS011;52977;44.816;20.538;2024-03-08T09:19:03;28.77;;;12.45;;
66175;SDS011;52977;44.816;20.538;2024-03-08T09:21:31;26.33;;;11.38;;
66175;SDS011;52977;44.816;20.538;2024-03-08T09:23:58;28.13;;;11.63;;
66175;SDS011;52977;44.816;20.538;2024-03-08T09:26:24;17.35;;;9.05;;
66175;SDS011;52977;44.816;20.538;2024-03-08T09:28:51;23.73;;;10.55;;
66175;SDS011;52977;44.816;20.538;2024-03-08T09:31:18;23.55;;;10.13;;
66175;SDS011;52977;44.816;20.538;2024-03-08T09:33:44;23.90;;;10.73;;
66175;SDS011;52977;44.816;20.538;2024-03-08T09:36:11;23.50;;;10.02;;
66175;SDS011;52977;44.816;20.538;2024-03-08T09:38:38;20.85;;;9.95;;
66175;SDS011;52977;44.816;20.538;2024-03-08T09:41:05;22.02;;;9.88;;
66175;SDS011;52977;44.816;20.538;2024-03-08T09:43:32;27.13;;;10.38;;
66175;SDS011;52977;44.816;20.538;2024-03-08T09:45:59;20.05;;;8.73;;
66175;SDS011;52977;44.816;20.538;2024-03-08T09:48:26;17.83;;;8.15;;
66175;SDS011;52977;44.816;20.538;2024-03-08T09:50:53;19.15;;;9.20;;
66175;SDS011;52977;44.816;20.538;2024-03-08T09:53:21;18.45;;;8.10;;
66175;SDS011;52977;44.816;20.538;2024-03-08T09:55:48;19.48;;;8.38;;
66175;SDS011;52977;44.816;20.538;2024-03-08T09:58:15;17.08;;;8.43;;
66175;SDS011;52977;44.816;20.538;2024-03-08T10:00:55;18.45;;;8.20;;
66175;SDS011;52977;44.816;20.538;2024-03-08T10:03:23;22.40;;;8.65;;
66175;SDS011;52977;44.816;20.538;2024-03-08T10:06:09;17.55;;;7.88;;
66175;SDS011;52977;44.816;20.538;2024-03-08T10:08:36;18.90;;;9.15;;
66175;SDS011;52977;44.816;20.538;2024-03-08T10:11:03;18.20;;;8.60;;
66175;SDS011;52977;44.816;20.538;2024-03-08T10:13:30;20.90;;;9.38;;
66175;SDS011;52977;44.816;20.538;2024-03-08T10:15:58;19.17;;;8.73;;
66175;SDS011;52977;44.816;20.538;2024-03-08T10:18:26;20.27;;;9.00;;
66175;SDS011;52977;44.816;20.538;2024-03-08T10:21:04;19.00;;;8.32;;
66175;SDS011;52977;44.816;20.538;2024-03-08T10:23:33;19.45;;;8.25;;
66175;SDS011;52977;44.816;20.538;2024-03-08T10:26:20;20.55;;;8.70;;
66175;SDS011;52977;44.816;20.538;2024-03-08T10:28:48;18.88;;;8.15;;
66175;SDS011;52977;44.816;20.538;2024-03-08T10:31:15;19.98;;;8.80;;
66175;SDS011;52977;44.816;20.538;2024-03-08T10:33:42;18.23;;;8.77;;
66175;SDS011;52977;44.816;20.538;2024-03-08T10:36:10;19.13;;;8.95;;
66175;SDS011;52977;44.816;20.538;2024-03-08T10:38:38;25.40;;;11.20;;
66175;SDS011;52977;44.816;20.538;2024-03-08T10:41:07;27.08;;;11.77;;
66175;SDS011;52977;44.816;20.538;2024-03-08T10:46:40;18.27;;;8.23;;
66175;SDS011;52977;44.816;20.538;2024-03-08T10:49:59;17.42;;;8.15;;
66175;SDS011;52977;44.816;20.538;2024-03-08T10:52:21;18.00;;;8.20;;
66175;SDS011;52977;44.816;20.538;2024-03-08T10:55:07;18.58;;;8.15;;
66175;SDS011;52977;44.816;20.538;2024-03-08T10:57:38;19.13;;;9.02;;
66175;SDS011;52977;44.816;20.538;2024-03-08T11:00:08;17.15;;;8.25;;
66175;SDS011;52977;44.816;20.538;2024-03-08T11:02:38;19.88;;;8.98;;
66175;SDS011;52977;44.816;20.538;2024-03-08T11:05:05;18.40;;;8.55;;
66175;SDS011;52977;44.816;20.538;2024-03-08T11:07:56;17.45;;;8.48;;
66175;SDS011;52977;44.816;20.538;2024-03-08T11:10:22;20.70;;;8.60;;
66175;SDS011;52977;44.816;20.538;2024-03-08T11:12:49;17.55;;;8.05;;
66175;SDS011;52977;44.816;20.538;2024-03-08T11:15:17;16.45;;;7.43;;
66175;SDS011;52977;44.816;20.538;2024-03-08T11:17:45;16.77;;;7.20;;
66175;SDS011;52977;44.816;20.538;2024-03-08T11:20:16;19.53;;;8.23;;
66175;SDS011;52977;44.816;20.538;2024-03-08T11:22:55;20.67;;;8.43;;
66175;SDS011;52977;44.816;20.538;2024-03-08T11:25:45;16.35;;;8.35;;
66175;SDS011;52977;44.816;20.538;2024-03-08T11:33:27;17.60;;;7.82;;
66175;SDS011;52977;44.816;20.538;2024-03-08T11:38:45;17.60;;;8.82;;
66175;SDS011;52977;44.816;20.538;2024-03-08T11:41:16;16.52;;;8.30;;
66175;SDS011;52977;44.816;20.538;2024-03-08T11:43:47;22.17;;;9.25;;
66175;SDS011;52977;44.816;20.538;2024-03-08T11:46:14;23.77;;;10.43;;
66175;SDS011;52977;44.816;20.538;2024-03-08T11:48:43;19.85;;;9.82;;
66175;SDS011;52977;44.816;20.538;2024-03-08T11:51:11;19.35;;;8.95;;
66175;SDS011;52977;44.816;20.538;2024-03-08T11:53:39;19.35;;;8.50;;
66175;SDS011;52977;44.816;20.538;2024-03-08T11:56:10;21.65;;;9.10;;
66175;SDS011;52977;44.816;20.538;2024-03-08T11:58:38;19.02;;;8.40;;
66175;SDS011;52977;44.816;20.538;2024-03-08T12:01:09;14.68;;;7.78;;
66175;SDS011;52977;44.816;20.538;2024-03-08T12:03:40;18.05;;;9.10;;
66175;SDS011;52977;44.816;20.538;2024-03-08T12:06:08;19.90;;;9.18;;
66175;SDS011;52977;44.816;20.538;2024-03-08T12:08:35;23.27;;;9.63;;
66175;SDS011;52977;44.816;20.538;2024-03-08T12:11:06;20.83;;;9.55;;
66175;SDS011;52977;44.816;20.538;2024-03-08T12:13:34;21.15;;;9.38;;
66175;SDS011;52977;44.816;20.538;2024-03-08T12:16:04;20.40;;;10.07;;
66175;SDS011;52977;44.816;20.538;2024-03-08T12:18:34;18.95;;;7.90;;
66175;SDS011;52977;44.816;20.538;2024-03-08T12:21:06;16.25;;;7.75;;
66175;SDS011;52977;44.816;20.538;2024-03-08T12:23:44;17.67;;;8.35;;
66175;SDS011;52977;44.816;20.538;2024-03-08T12:26:11;20.13;;;9.73;;
66175;SDS011;52977;44.816;20.538;2024-03-08T12:28:42;20.80;;;8.85;;
66175;SDS011;52977;44.816;20.538;2024-03-08T12:31:13;21.20;;;10.63;;
66175;SDS011;52977;44.816;20.538;2024-03-08T12:33:49;17.92;;;9.32;;
66175;SDS011;52977;44.816;20.538;2024-03-08T12:36:17;23.67;;;9.02;;
66175;SDS011;52977;44.816;20.538;2024-03-08T12:38:44;16.42;;;7.60;;
66175;SDS011;52977;44.816;20.538;2024-03-08T12:41:15;15.88;;;8.10;;
66175;SDS011;52977;44.816;20.538;2024-03-08T12:43:43;17.83;;;8.20;;
66175;SDS011;52977;44.816;20.538;2024-03-08T12:46:18;17.27;;;7.32;;
66175;SDS011;52977;44.816;20.538;2024-03-08T12:48:47;18.80;;;8.32;;
66175;SDS011;52977;44.816;20.538;2024-03-08T12:51:14;17.70;;;8.38;;
66175;SDS011;52977;44.816;20.538;2024-03-08T12:53:42;17.52;;;7.97;;
66175;SDS011;52977;44.816;20.538;2024-03-08T12:56:29;17.13;;;8.10;;
66175;SDS011;52977;44.816;20.538;2024-03-08T12:58:56;17.35;;;8.27;;
66175;SDS011;52977;44.816;20.538;2024-03-08T13:01:23;15.63;;;7.65;;
66175;SDS011;52977;44.816;20.538;2024-03-08T13:03:49;17.20;;;8.15;;
66175;SDS011;52977;44.816;20.538;2024-03-08T13:06:15;19.98;;;8.45;;
66175;SDS011;52977;44.816;20.538;2024-03-08T13:08:41;20.30;;;9.02;;
66175;SDS011;52977;44.816;20.538;2024-03-08T13:11:09;21.05;;;8.43;;
66175;SDS011;52977;44.816;20.538;2024-03-08T13:13:39;18.98;;;8.25;;
66175;SDS011;52977;44.816;20.538;2024-03-08T13:16:06;19.65;;;8.90;;
66175;SDS011;52977;44.816;20.538;2024-03-08T13:18:37;17.50;;;8.05;;
66175;SDS011;52977;44.816;20.538;2024-03-08T13:21:04;15.90;;;7.65;;
66175;SDS011;52977;44.816;20.538;2024-03-08T13:23:50;19.23;;;7.47;;
66175;SDS011;52977;44.816;20.538;2024-03-08T13:26:18;15.38;;;7.55;;
66175;SDS011;52977;44.816;20.538;2024-03-08T13:28:48;13.38;;;7.20;;
66175;SDS011;52977;44.816;20.538;2024-03-08T13:31:22;16.02;;;7.95;;
66175;SDS011;52977;44.816;20.538;2024-03-08T13:33:48;15.27;;;7.75;;
66175;SDS011;52977;44.816;20.538;2024-03-08T13:36:15;14.55;;;6.45;;
66175;SDS011;52977;44.816;20.538;2024-03-08T13:38:42;13.13;;;6.07;;
66175;SDS011;52977;44.816;20.538;2024-03-08T13:41:13;13.07;;;6.28;;
66175;SDS011;52977;44.816;20.538;2024-03-08T13:43:43;13.90;;;6.13;;
66175;SDS011;52977;44.816;20.538;2024-03-08T13:46:16;28.08;;;11.43;;
66175;SDS011;52977;44.816;20.538;2024-03-08T13:48:43;25.27;;;11.27;;
66175;SDS011;52977;44.816;20.538;2024-03-08T13:51:09;22.60;;;9.30;;
66175;SDS011;52977;44.816;20.538;2024-03-08T13:53:39;18.75;;;8.48;;
66175;SDS011;52977;44.816;20.538;2024-03-08T13:56:05;16.77;;;7.63;;
66175;SDS011;52977;44.816;20.538;2024-03-08T13:58:32;14.13;;;6.68;;
66175;SDS011;52977;44.816;20.538;2024-03-08T14:00:58;14.75;;;6.88;;
66175;SDS011;52977;44.816;20.538;2024-03-08T14:03:24;13.43;;;6.70;;
66175;SDS011;52977;44.816;20.538;2024-03-08T14:05:49;17.02;;;8.40;;
66175;SDS011;52977;44.816;20.538;2024-03-08T14:08:16;14.23;;;7.13;;
66175;SDS011;52977;44.816;20.538;2024-03-08T14:10:43;15.23;;;7.35;;
66175;SDS011;52977;44.816;20.538;2024-03-08T14:13:12;15.25;;;7.65;;
66175;SDS011;52977;44.816;20.538;2024-03-08T14:15:42;14.40;;;7.47;;
66175;SDS011;52977;44.816;20.538;2024-03-08T14:18:08;12.77;;;6.60;;
66175;SDS011;52977;44.816;20.538;2024-03-08T14:20:34;14.60;;;7.00;;
66175;SDS011;52977;44.816;20.538;2024-03-08T14:23:01;14.07;;;6.20;;
66175;SDS011;52977;44.816;20.538;2024-03-08T14:25:28;13.23;;;6.20;;
66175;SDS011;52977;44.816;20.538;2024-03-08T14:27:56;13.43;;;5.95;;
66175;SDS011;52977;44.816;20.538;2024-03-08T14:30:24;12.63;;;6.57;;
66175;SDS011;52977;44.816;20.538;2024-03-08T14:33:04;11.00;;;5.88;;
66175;SDS011;52977;44.816;20.538;2024-03-08T14:35:31;14.20;;;6.35;;
66175;SDS011;52977;44.816;20.538;2024-03-08T14:37:58;13.70;;;6.80;;
66175;SDS011;52977;44.816;20.538;2024-03-08T14:40:24;13.32;;;6.05;;
66175;SDS011;52977;44.816;20.538;2024-03-08T14:42:51;12.43;;;6.15;;